Northern & Central Napa County

33 Stations

15 Minute Data | America/Los_Angeles
as of 9/6/26 12:22 AM PDT
Station Date Time Temp (°F) RH (%) Dew Pt (°F) Wind Spd (mph) Wind Dir (°) Wind Gust (mph) Latest Rain (In) Daily Rain (In) Daily Max Temp (°F) Daily Min Temp (°F)
Tenma (North Calistoga) 9/6/26 0015 49.7   1.9 - - - - - 0.00 0.00 84.0   3.7 44.1   7.4
Calistoga-Solari 9/6/26 0015 48.5   3.2 85   5 44.2   4.8 0.8   0.7 NW | 326 2.1   0.3 0.00 0.00 80.7   3.2 43.1   5.6
Calistoga-North 9/6/26 0015 50.8   0.7 83   9 45.8   3.5 - - - 0.00 0.00 84.8   4.4 45.1   5.2
Twomey Calistoga 9/6/26 0015 45.2   7.1 91   0 42.8   7.2 0.1   2.0 WSW | 248 0.9   2.6 0.00 0.00 84.2   3.5 39.7   9.1
Paloma 9/6/26 0015 50.6   0.9 78   12 44.1   2.9 0.5   1.0 WSW | 242 2.0   0.7 0.00 0.00 84.1   2.8 41.1   8.2
Calistoga (Ranch 78) 9/6/26 0015 49.0   3.7 86   0 45.2   3.6 0.9   0.5 S | 179 2.5   0.2 0.00 0.00 81.7   2.1 41.5   9.2
Diamond Mtn (Schramsberg) 9/6/26 0015 57.2   2.5 64   19 45.0   4.6 - - - 0.00 0.00 79.5   3.8 50.2   1.0
Diamond Mtn (McEachran) 9/6/26 0015 54.7   1.8 73   6 46.1   4.0 - - - - - 79.7   3.8 49.3   2.4
Deer Park 9/6/26 0015 55.9   2.8 72   1 47.1   2.2 1.2   3.0 E | 80 4.3   3.4 0.00 0.00 82.9   5.1 50.1   4.3
St. Helena-North 9/6/26 0015 54.2   0.5 71   8 45.1   2.2 0.6   0.6 WSW | 248 2.6   1.5 0.00 0.00 83.5   3.2 46.2   5.5
St. Helena (NVV Office) 9/6/26 0015 55.2   0.2 - - 0.0   0.3 N | 0 0.0   1.4 0.00 0.00 84.2   4.2 46.3   2.7
Tiara Fria (East St. Helena) 9/6/26 0015 54.0   1.9 79   2 47.6   1.1 0.5   0.3 WNW | 286 1.5   0.0 0.00 0.00 83.1   4.2 43.2   6.0
Prisoner Winery 9/6/26 0015 50.1   1.3 88   0 46.7   1.4 0.9   0.2 WNW | 285 2.4   1.0 0.00 0.00 85.8   5.8 44.0   4.2
Rutherford Hill Estate 9/6/26 0015 55.2   0.2 84   3 50.4   0.9 0.6   0.2 NNW | 333 2.2   0.4 0.00 0.00 85.5   4.2 49.7   1.8
Rutherford-North (Mee Ln) 9/6/26 0015 51.7   2.8 84   4 46.9   1.5 1.7   0.9 NW | 319 2.8   0.7 0.00 0.00 83.2   2.1 41.6   2.4
Rutherford (STS) 9/6/26 0015 51.6   1.4 91   0 49.0   1.2 1.3   0.4 W | 274 2.4   0.1 0.00 0.00 84.9   1.9 41.1   4.5
Silver Oak OV 9/6/26 0015 56.3   7.2 84   4 51.6   5.9 1.2   0.0 ESE | 115 2.3   0.1 0.00 0.00 82.8   3.2 41.7   7.0
Oakville-NE (Ranch 88) 9/6/26 0015 52.3   3.7 81   0 46.7   3.7 0.0   0.0 N | 0 0.0   0.0 0.00 0.00 84.1   3.2 40.3   7.8
Crossroads Ranch 9/6/26 0015 55.1   5.2 82   4 49.7   3.9 1.3   1.1 ESE | 106 2.5   1.3 0.00 0.00 82.6   2.6 42.1   7.8
Oakville 9/6/26 0015 55.5   6.0 84   3 50.6   4.9 0.8   0.0 E | 85 2.0   0.2 0.00 0.00 82.3   2.1 42.2   7.1
To Kalon Remote (TKKE) 9/6/26 0015 54.7   5.0 - - - - - - - 83.9   3.4 43.0   4.5
To Kalon 9/6/26 0015 53.4   2.5 86   3 49.4   1.6 0.3   1.0 SW | 236 2.4   0.1 0.00 0.00 83.1   3.0 43.7   4.9
To Kalon Remote (TKN5) 9/6/26 0015 54.8   3.6 - - - - - - - 83.4   3.1 43.2   4.8
Jump Rock 9/6/26 0015 45.6   0.9 92   4 43.5   2.1 0.5   0.2 ENE | 68 2.3   0.2 0.00 0.00 77.3   3.8 40.8   5.2
State Lane Ranch 9/6/26 0015 55.3   7.3 86   6 51.3   5.3 0.1   0.8 NE | 56 1.2   0.3 0.00 0.00 84.3   4.6 40.9   7.0
Yountville (Ranch 67) 9/6/26 0015 54.1   5.7 82   2 48.9   4.8 1.4   1.3 SSW | 200 3.6   2.6 0.00 0.00 82.1   3.9 41.4   7.0
Borreo (Soda Canyon) 9/6/26 0015 50.9   1.1 88   5 47.5   0.4 1.0   0.6 N | 8 2.9   0.9 0.00 0.00 80.1   4.0 45.7   4.1
Wappo Hill Floor 9/6/26 0015 53.9   4.1 89   11 50.6   0.9 1.7   0.5 SW | 214 3.1   0.3 0.00 0.00 82.5   2.6 41.8   7.7
Wappo Hill 9/6/26 0015 56.1   1.0 85   4 51.7   2.3 2.4   0.2 SSW | 193 3.0   1.8 0.00 0.00 83.2   3.9 46.9   7.4
Stags Leap Dist (Chimney Rock) 9/6/26 0015 54.6   5.2 90   2 51.8   4.5 0.6   0.5 SSW | 205 1.9   1.1 0.00 0.00 82.5   2.8 41.7   7.4
Stags Leap Dist (Silverado Vineyards) 9/6/26 0015 55.2   5.6 84   5 50.4   4.0 0.5   0.5 W | 270 2.1   2.1 0.00 0.00 83.0   3.7 42.4   6.9
Yountville-SE (Ranch 85) 9/6/26 0015 54.1   3.1 88   3 50.6   2.0 1.2   1.2 W | 266 2.3   2.3 0.00 0.00 83.0   4.1 43.2   7.5
Yountville-South (Ranch 87) 9/6/26 0015 52.9   2.6 87   2 49.1   2.0 0.1   0.1 S | 186 0.8   0.8 0.00 0.00 83.3   4.4 42.8   7.2
Max     57.2 92 51.8 2.4 - 4.3 0.00 0.00 85.8 50.2
Avg     53.0 83 47.9 0.8 - 2.1 0.00 - - -
Min     45.2 64 42.8 0.0 - 0.0 0.00 0.00 77.3 39.7